Holyhead, United Kingdom
Current Conditions -  °F | °C
As of 3:50 AM on Friday 31 Oct 2014 (Local Time) from EGOV Reporting Station
Light Rain Light Rain  
Wind Chill: 15°   Ceiling: 1000
Heat Index: 15°   Visibility: 4mi
Dew Point: 15°   Wind: 24mph
Humidity: 100%   Direction: 170°S
Pressure: 29.83"   Gusts: NA
Location:  53.31°N, 4.63°W
Report Text: EGOV 310350Z 17021KT 7000 -RADZ OVC010 15/15 Q1010 GRN
Loading
Personal Weather Stations






























Interactive Weather Map
Tropical Storm Tracking
New forecast layout! Learn more

10-Day Weather Forecast

Advertisements
Track Severe Weather on mobile